createdAt,value
2022-10-03T00:00:19.656Z,7.83
2022-10-03T00:03:35.250Z,7.47
2022-10-03T00:06:32.670Z,6.83
2022-10-03T00:09:31.148Z,7.03
2022-10-03T00:12:37.277Z,6.70
2022-10-03T00:15:27.226Z,6.53
2022-10-03T00:18:25.425Z,5.90
2022-10-03T00:21:42.843Z,5.50
2022-10-03T00:24:42.810Z,6.03
2022-10-03T00:27:36.678Z,5.67
2022-10-03T00:30:25.354Z,5.30
2022-10-03T00:33:18.701Z,6.50
2022-10-03T00:36:09.430Z,5.63
2022-10-03T00:39:15.846Z,6.13
2022-10-03T00:42:35.989Z,5.80
2022-10-03T00:46:12.187Z,5.40
2022-10-03T00:49:39.820Z,5.70
2022-10-03T00:53:24.575Z,5.67
2022-10-03T00:56:34.166Z,5.63
2022-10-03T00:59:48.358Z,5.80
2022-10-03T01:03:06.919Z,5.80
2022-10-03T01:06:09.044Z,4.70
2022-10-03T01:09:15.007Z,4.60
2022-10-03T01:12:27.910Z,5.47
2022-10-03T01:15:24.377Z,5.80
2022-10-03T01:18:22.560Z,7.00
2022-10-03T01:21:17.292Z,6.13
2022-10-03T01:24:27.943Z,6.97
2022-10-03T01:27:19.023Z,8.03
2022-10-03T01:30:23.150Z,7.30
2022-10-03T01:33:16.029Z,7.00
2022-10-03T01:36:09.666Z,7.20
2022-10-03T01:38:59.265Z,7.30
2022-10-03T01:41:52.782Z,8.53
2022-10-03T01:44:56.974Z,7.50
2022-10-03T01:47:51.322Z,7.63
2022-10-03T01:50:46.447Z,7.73
2022-10-03T01:53:43.820Z,8.23
2022-10-03T01:56:35.228Z,8.93
2022-10-03T01:59:30.434Z,8.13
2022-10-03T02:02:26.609Z,7.37
2022-10-03T02:05:20.254Z,7.23
2022-10-03T02:08:17.906Z,6.47
2022-10-03T02:11:08.261Z,5.83
2022-10-03T02:14:00.378Z,6.10
2022-10-03T02:16:59.001Z,5.57
2022-10-03T02:19:52.018Z,5.57
2022-10-03T02:22:50.534Z,5.83
2022-10-03T02:26:00.215Z,5.10
2022-10-03T02:29:00.434Z,4.70
2022-10-03T02:32:31.108Z,5.40
2022-10-03T02:35:35.737Z,4.97
2022-10-03T02:38:40.845Z,5.53
2022-10-03T02:42:00.886Z,5.30
2022-10-03T02:45:27.489Z,5.60
2022-10-03T02:48:42.913Z,5.00
2022-10-03T02:52:03.566Z,5.90
2022-10-03T02:55:17.365Z,4.80
2022-10-03T02:58:38.980Z,4.70
2022-10-03T03:02:01.921Z,4.73
2022-10-03T03:05:26.843Z,5.20
2022-10-03T03:09:05.762Z,5.53
2022-10-03T03:12:22.310Z,5.30
2022-10-03T03:15:59.364Z,5.43
2022-10-03T03:18:53.557Z,5.10
2022-10-03T03:21:45.513Z,5.10
2022-10-03T03:25:00.031Z,5.20
2022-10-03T03:27:58.187Z,5.60
2022-10-03T03:30:53.399Z,5.57
2022-10-03T03:33:56.501Z,5.90
2022-10-03T03:36:48.946Z,6.10
2022-10-03T03:40:08.929Z,5.90
2022-10-03T03:43:20.477Z,6.37
2022-10-03T03:46:22.199Z,6.03
2022-10-03T03:49:31.685Z,6.43
2022-10-03T03:52:35.146Z,6.47
2022-10-03T03:55:48.567Z,6.97
2022-10-03T03:58:40.600Z,7.07
2022-10-03T04:01:51.615Z,7.10
2022-10-03T04:05:00.519Z,6.73
2022-10-03T04:08:01.530Z,6.73
2022-10-03T04:11:02.499Z,6.73
2022-10-03T04:14:29.032Z,7.57
2022-10-03T04:17:49.216Z,7.53
2022-10-03T04:20:51.565Z,7.23
2022-10-03T04:23:59.851Z,7.57
2022-10-03T04:27:02.046Z,7.17
2022-10-03T04:29:58.051Z,7.33
2022-10-03T04:33:07.305Z,7.67
2022-10-03T04:36:25.368Z,7.67
2022-10-03T04:39:20.151Z,7.47
2022-10-03T04:42:15.476Z,8.83
2022-10-03T04:45:18.750Z,7.77
2022-10-03T04:48:12.839Z,7.97
2022-10-03T04:51:08.573Z,7.20
2022-10-03T04:54:02.224Z,7.27
2022-10-03T04:56:55.983Z,8.17
2022-10-03T04:59:50.158Z,8.63
2022-10-03T05:02:47.625Z,7.70
2022-10-03T05:05:47.784Z,7.63
2022-10-03T05:08:40.983Z,7.07
2022-10-03T05:11:42.345Z,7.70
2022-10-03T05:14:48.389Z,7.90
2022-10-03T05:17:45.843Z,7.00
2022-10-03T05:20:42.604Z,7.13
2022-10-03T05:23:42.755Z,7.13
2022-10-03T05:26:45.919Z,7.60
2022-10-03T05:29:38.749Z,7.70
2022-10-03T05:32:30.048Z,7.47
2022-10-03T05:35:30.543Z,7.70
2022-10-03T05:38:31.293Z,7.60
2022-10-03T05:41:25.912Z,7.53
2022-10-03T05:44:17.277Z,7.33
2022-10-03T05:47:30.838Z,7.70
2022-10-03T05:50:57.656Z,7.50
2022-10-03T05:54:18.062Z,8.03
2022-10-03T05:57:52.926Z,8.20
2022-10-03T06:01:01.774Z,7.60
2022-10-03T06:04:37.416Z,7.93
2022-10-03T06:07:20.889Z,7.13
2022-10-03T06:10:19.155Z,8.27
2022-10-03T06:12:50.781Z,8.37
2022-10-03T06:15:44.737Z,7.53
2022-10-03T06:18:31.482Z,7.70
2022-10-03T06:21:40.612Z,8.07
2022-10-03T06:24:43.247Z,7.43
2022-10-03T06:28:10.542Z,7.97
2022-10-03T06:31:04.634Z,8.00
2022-10-03T06:34:31.315Z,7.03
2022-10-03T06:37:13.572Z,6.17
2022-10-03T06:40:48.233Z,6.50
2022-10-03T06:43:42.984Z,5.50
2022-10-03T06:46:47.770Z,5.47
2022-10-03T06:49:36.519Z,6.50
2022-10-03T06:52:29.326Z,5.70
2022-10-03T06:55:30.822Z,5.60
2022-10-03T06:58:30.430Z,5.13
2022-10-03T07:01:06.997Z,4.93
2022-10-03T07:04:04.874Z,5.40
2022-10-03T07:06:54.722Z,5.10
2022-10-03T07:10:19.361Z,5.60
2022-10-03T07:13:18.288Z,5.43
2022-10-03T07:16:26.529Z,5.30
2022-10-03T07:19:20.046Z,5.47
2022-10-03T07:22:39.678Z,5.30
2022-10-03T07:25:36.589Z,5.20
2022-10-03T07:28:46.089Z,5.40
2022-10-03T07:31:22.240Z,7.00
2022-10-03T07:34:29.667Z,9.00
2022-10-03T07:37:54.955Z,6.07
2022-10-03T07:40:43.509Z,5.93
2022-10-03T07:44:16.066Z,5.73
2022-10-03T07:47:17.191Z,6.37
2022-10-03T07:49:57.627Z,5.87
2022-10-03T07:52:47.765Z,6.17
2022-10-03T07:55:32.527Z,7.57
2022-10-03T07:58:31.839Z,7.10
2022-10-03T08:01:35.578Z,7.93
2022-10-03T08:04:45.547Z,9.90
2022-10-03T08:07:39.237Z,9.77
2022-10-03T08:10:49.559Z,10.10
2022-10-03T08:13:27.945Z,9.33
2022-10-03T08:16:07.179Z,10.17
2022-10-03T08:19:19.030Z,11.13
2022-10-03T08:21:57.317Z,11.20
2022-10-03T08:24:43.340Z,10.23
2022-10-03T08:27:44.369Z,11.13
2022-10-03T08:30:31.609Z,11.30
2022-10-03T08:33:34.573Z,15.33
2022-10-03T08:37:27.739Z,12.73
2022-10-03T08:40:43.001Z,10.67
2022-10-03T08:43:50.395Z,10.63
2022-10-03T08:46:52.875Z,9.93
2022-10-03T08:49:53.508Z,9.20
2022-10-03T08:52:30.289Z,9.67
2022-10-03T08:55:41.059Z,9.57
2022-10-03T08:58:39.800Z,9.60
2022-10-03T09:01:32.111Z,9.87
2022-10-03T09:05:03.443Z,9.67
2022-10-03T09:08:20.808Z,14.43
2022-10-03T09:11:22.603Z,10.90
2022-10-03T09:14:34.443Z,9.37
2022-10-03T09:17:42.155Z,10.57
2022-10-03T09:20:34.314Z,9.20
2022-10-03T09:23:38.156Z,8.43
2022-10-03T09:26:43.540Z,9.00
2022-10-03T09:29:30.981Z,8.30
2022-10-03T09:32:48.567Z,9.57
2022-10-03T09:35:43.366Z,9.50
2022-10-03T09:38:30.567Z,8.37
2022-10-03T09:41:45.883Z,8.13
2022-10-03T09:45:04.359Z,8.43
2022-10-03T09:48:17.708Z,6.50
2022-10-03T09:51:13.322Z,7.57
2022-10-03T09:54:23.696Z,7.00
2022-10-03T09:57:26.045Z,6.73
2022-10-03T10:00:12.316Z,7.33
2022-10-03T10:03:38.677Z,7.30
2022-10-03T10:06:39.451Z,8.10
2022-10-03T10:09:47.561Z,6.93
2022-10-03T10:13:02.738Z,8.27
2022-10-03T10:16:01.017Z,7.97
2022-10-03T10:19:08.590Z,6.10
2022-10-03T10:22:40.569Z,5.93
2022-10-03T10:25:34.764Z,8.43
2022-10-03T10:28:27.666Z,6.13
2022-10-03T10:32:05.720Z,5.40
2022-10-03T10:35:39.011Z,5.17
2022-10-03T10:38:26.241Z,4.70
2022-10-03T10:41:49.448Z,5.13
2022-10-03T10:45:10.889Z,3.93
2022-10-03T10:48:21.809Z,4.30
2022-10-03T10:51:23.057Z,7.27
2022-10-03T10:54:46.513Z,4.73
2022-10-03T10:57:58.770Z,6.37
2022-10-03T11:00:30.886Z,5.50
2022-10-03T11:03:56.978Z,4.17
2022-10-03T11:07:27.723Z,4.30
2022-10-03T11:10:31.707Z,3.80
2022-10-03T11:13:47.224Z,3.90
2022-10-03T11:17:15.754Z,3.17
2022-10-03T11:20:16.962Z,2.63
2022-10-03T11:23:52.037Z,2.47
2022-10-03T11:27:11.074Z,2.53
2022-10-03T11:30:19.927Z,2.77
2022-10-03T11:33:28.911Z,2.23
2022-10-03T11:36:24.420Z,2.30
2022-10-03T11:39:01.101Z,2.23
2022-10-03T11:41:41.006Z,2.53
2022-10-03T11:44:18.785Z,2.60
2022-10-03T11:47:01.272Z,2.80
2022-10-03T11:49:59.488Z,2.70
2022-10-03T11:52:31.154Z,2.60
2022-10-03T11:55:16.540Z,2.60
2022-10-03T11:57:46.708Z,2.20
2022-10-03T12:00:16.093Z,2.03
2022-10-03T12:03:26.814Z,2.17
2022-10-03T12:06:18.545Z,2.40
2022-10-03T12:08:57.708Z,2.23
2022-10-03T12:11:29.349Z,2.20
2022-10-03T12:14:24.006Z,2.00
2022-10-03T12:17:07.002Z,2.23
2022-10-03T12:19:39.664Z,2.17
2022-10-03T12:22:18.481Z,2.50
2022-10-03T12:24:46.610Z,2.40
2022-10-03T12:27:22.885Z,1.93
2022-10-03T12:29:58.737Z,2.27
2022-10-03T12:32:42.517Z,2.00
2022-10-03T12:35:23.235Z,2.07
2022-10-03T12:38:04.328Z,2.00
2022-10-03T12:40:36.206Z,2.30
2022-10-03T12:43:15.343Z,2.53
2022-10-03T12:45:45.976Z,2.30
2022-10-03T12:48:33.360Z,2.23
2022-10-03T12:51:04.835Z,2.20
2022-10-03T12:53:43.166Z,2.20
2022-10-03T12:56:18.308Z,2.07
2022-10-03T12:59:01.089Z,2.30
2022-10-03T13:01:40.093Z,2.63
2022-10-03T13:04:13.001Z,1.90
2022-10-03T13:07:04.127Z,2.13
2022-10-03T13:10:01.564Z,2.53
2022-10-03T13:12:40.179Z,2.47
2022-10-03T13:15:47.436Z,2.57
2022-10-03T13:18:46.232Z,2.30
2022-10-03T13:21:44.448Z,2.57
2022-10-03T13:24:09.979Z,2.20
2022-10-03T13:26:47.509Z,2.43
2022-10-03T13:29:33.599Z,2.20
2022-10-03T13:32:18.370Z,2.60
2022-10-03T13:35:26.005Z,2.07
2022-10-03T13:38:26.344Z,2.40
2022-10-03T13:40:59.009Z,2.60
2022-10-03T13:43:35.759Z,2.53
2022-10-03T13:46:06.158Z,2.57
2022-10-03T13:48:35.703Z,2.70
2022-10-03T13:51:05.596Z,2.80
2022-10-03T13:53:59.845Z,2.50
2022-10-03T13:56:50.553Z,2.40
2022-10-03T13:59:43.378Z,2.23
2022-10-03T14:02:28.882Z,2.47
2022-10-03T14:05:10.287Z,2.37
2022-10-03T14:07:44.327Z,2.60
2022-10-03T14:10:50.820Z,2.67
2022-10-03T14:13:22.496Z,2.40
2022-10-03T14:15:53.257Z,2.33
2022-10-03T14:18:44.015Z,2.40
2022-10-03T14:22:13.840Z,2.77
2022-10-03T14:24:50.348Z,2.63
2022-10-03T14:27:39.602Z,2.20
2022-10-03T14:30:13.022Z,2.90
2022-10-03T14:32:59.628Z,2.57
2022-10-03T14:35:38.006Z,2.57
2022-10-03T14:39:00.572Z,2.13
2022-10-03T14:41:47.705Z,2.40
2022-10-03T14:44:19.853Z,2.50
2022-10-03T14:46:51.743Z,2.20
2022-10-03T14:52:25.884Z,2.30
2022-10-03T14:54:56.349Z,3.00
2022-10-03T14:57:39.637Z,2.40
2022-10-03T15:00:34.385Z,2.30
2022-10-03T15:03:33.420Z,1.93
2022-10-03T15:06:22.224Z,2.20
2022-10-03T15:08:53.038Z,2.60
2022-10-03T15:11:27.202Z,2.33
2022-10-03T15:13:58.026Z,2.30
2022-10-03T15:16:26.150Z,2.30
2022-10-03T15:18:56.313Z,2.27
2022-10-03T15:21:24.344Z,2.17
2022-10-03T15:23:56.971Z,2.00
2022-10-03T15:26:26.938Z,2.13
2022-10-03T15:28:57.392Z,2.63
2022-10-03T15:31:33.954Z,2.50
2022-10-03T15:34:03.287Z,2.10
2022-10-03T15:36:33.267Z,2.10
2022-10-03T15:39:04.046Z,2.20
2022-10-03T15:41:36.912Z,2.50
2022-10-03T15:44:07.153Z,2.00
2022-10-03T15:46:39.147Z,2.30
2022-10-03T15:49:12.683Z,2.20
2022-10-03T15:51:40.953Z,2.60
2022-10-03T15:54:09.960Z,2.17
2022-10-03T15:56:41.093Z,2.47
2022-10-03T15:59:11.915Z,2.27
2022-10-03T16:01:42.201Z,2.57
2022-10-03T16:04:17.142Z,2.10
2022-10-03T16:06:49.347Z,2.50
2022-10-03T16:09:23.358Z,2.17
2022-10-03T16:12:02.495Z,2.23
2022-10-03T16:14:32.575Z,2.20
2022-10-03T16:17:01.871Z,2.03
2022-10-03T16:19:37.691Z,6.20
2022-10-03T16:22:15.043Z,3.60
2022-10-03T16:24:46.565Z,2.50
2022-10-03T16:27:18.809Z,2.30
2022-10-03T16:29:54.012Z,2.43
2022-10-03T16:32:23.659Z,3.60
2022-10-03T16:34:51.815Z,2.70
2022-10-03T16:37:22.170Z,2.53
2022-10-03T16:39:58.573Z,3.80
2022-10-03T16:42:38.366Z,3.10
2022-10-03T16:45:08.524Z,4.63
2022-10-03T16:47:37.133Z,3.77
2022-10-03T16:50:24.622Z,6.43
2022-10-03T16:52:53.963Z,9.50
2022-10-03T16:55:24.977Z,3.93
2022-10-03T16:57:57.400Z,3.03
2022-10-03T17:00:30.086Z,2.63
2022-10-03T17:02:58.193Z,2.40
2022-10-03T17:05:26.419Z,2.53
2022-10-03T17:07:56.489Z,2.60
2022-10-03T17:10:33.455Z,2.50
2022-10-03T17:13:04.928Z,2.60
2022-10-03T17:15:34.997Z,2.40
2022-10-03T17:18:16.875Z,2.80
2022-10-03T17:20:48.198Z,2.80
2022-10-03T17:23:28.119Z,3.40
2022-10-03T17:26:06.010Z,3.43
2022-10-03T17:28:47.025Z,2.50
2022-10-03T17:31:26.404Z,2.90
2022-10-03T17:33:56.223Z,3.00
2022-10-03T17:36:45.588Z,2.63
2022-10-03T17:39:21.853Z,3.20
2022-10-03T17:41:53.353Z,2.80
2022-10-03T17:44:30.097Z,3.10
2022-10-03T17:47:01.092Z,3.20
2022-10-03T17:49:41.549Z,2.70
2022-10-03T17:52:17.610Z,5.07
2022-10-03T17:54:46.256Z,3.70
2022-10-03T17:57:18.344Z,8.90
2022-10-03T17:59:54.894Z,4.13
2022-10-03T18:02:30.336Z,3.50
2022-10-03T18:05:04.528Z,3.60
2022-10-03T18:07:32.589Z,3.43
2022-10-03T18:10:00.662Z,3.50
2022-10-03T18:12:33.593Z,3.20
2022-10-03T18:15:22.614Z,3.37
2022-10-03T18:18:03.079Z,3.50
2022-10-03T18:20:42.287Z,3.37
2022-10-03T18:23:13.206Z,3.50
2022-10-03T18:26:19.156Z,3.33
2022-10-03T18:28:51.599Z,3.80
2022-10-03T18:31:22.251Z,3.90
2022-10-03T18:33:53.232Z,3.33
2022-10-03T18:36:24.559Z,3.80
2022-10-03T18:38:53.505Z,3.53
2022-10-03T18:41:21.698Z,3.80
2022-10-03T18:43:58.684Z,3.60
2022-10-03T18:46:30.818Z,3.33
2022-10-03T18:49:30.195Z,3.83
2022-10-03T18:51:54.501Z,3.37
2022-10-03T18:54:31.064Z,3.80
2022-10-03T18:57:05.693Z,3.40
2022-10-03T18:59:37.373Z,3.47
2022-10-03T19:02:10.357Z,4.07
2022-10-03T19:04:40.718Z,3.97
2022-10-03T19:07:18.206Z,3.77
2022-10-03T19:10:31.575Z,3.50
2022-10-03T19:13:04.857Z,4.00
2022-10-03T19:16:10.565Z,3.50
2022-10-03T19:18:43.138Z,4.07
2022-10-03T19:21:18.606Z,4.00
2022-10-03T19:23:48.478Z,4.50
2022-10-03T19:26:23.258Z,3.87
2022-10-03T19:28:52.599Z,4.20
2022-10-03T19:31:22.853Z,3.90
2022-10-03T19:33:54.124Z,3.73
2022-10-03T19:36:23.343Z,3.40
2022-10-03T19:38:51.897Z,3.63
2022-10-03T19:41:28.603Z,3.83
2022-10-03T19:43:56.947Z,3.90
2022-10-03T19:47:13.946Z,3.70
2022-10-03T19:49:54.984Z,4.03
2022-10-03T19:52:27.887Z,4.20
2022-10-03T19:55:12.747Z,4.03
2022-10-03T19:57:44.341Z,3.63
2022-10-03T20:00:25.768Z,3.83
2022-10-03T20:02:56.856Z,4.00
2022-10-03T20:05:55.414Z,4.10
2022-10-03T20:08:46.515Z,4.43
2022-10-03T20:11:42.181Z,4.63
2022-10-03T20:14:35.090Z,4.70
2022-10-03T20:17:24.104Z,4.93
2022-10-03T20:20:17.805Z,4.30
2022-10-03T20:23:08.184Z,5.07
2022-10-03T20:26:00.835Z,5.20
2022-10-03T20:29:07.033Z,4.80
2022-10-03T20:32:00.561Z,5.53
2022-10-03T20:34:55.636Z,5.33
2022-10-03T20:37:47.732Z,4.70
2022-10-03T20:40:38.774Z,5.30
2022-10-03T20:43:41.267Z,5.00
2022-10-03T20:46:35.612Z,4.30
2022-10-03T20:49:30.766Z,4.60
2022-10-03T20:52:20.421Z,4.10
2022-10-03T20:55:09.228Z,4.20
2022-10-03T20:58:12.253Z,4.40
2022-10-03T21:01:03.122Z,4.23
2022-10-03T21:04:05.158Z,4.20
2022-10-03T21:07:00.079Z,4.87
2022-10-03T21:09:50.350Z,4.50
2022-10-03T21:12:43.079Z,4.50
2022-10-03T21:15:41.393Z,4.37
2022-10-03T21:18:32.275Z,4.47
2022-10-03T21:21:24.256Z,4.23
2022-10-03T21:24:15.956Z,4.30
2022-10-03T21:27:07.856Z,4.80
2022-10-03T21:29:58.459Z,5.00
2022-10-03T21:32:57.058Z,5.43
2022-10-03T21:35:45.429Z,5.27
2022-10-03T21:38:34.849Z,5.33
2022-10-03T21:41:29.329Z,5.57
2022-10-03T21:44:44.564Z,5.40
2022-10-03T21:47:40.867Z,5.37
2022-10-03T21:50:32.690Z,5.43
2022-10-03T21:53:24.818Z,5.23
2022-10-03T21:56:46.063Z,5.30
2022-10-03T21:59:52.698Z,5.40
2022-10-03T22:02:59.677Z,5.37
2022-10-03T22:05:52.279Z,5.30
2022-10-03T22:08:42.249Z,5.10
2022-10-03T22:11:43.108Z,5.00
2022-10-03T22:14:38.911Z,5.33
2022-10-03T22:17:30.265Z,5.30
2022-10-03T22:20:21.729Z,4.83
2022-10-03T22:23:23.890Z,4.63
2022-10-03T22:26:17.838Z,5.00
2022-10-03T22:29:09.496Z,4.73
2022-10-03T22:32:00.276Z,4.43
2022-10-03T22:34:53.147Z,4.70
2022-10-03T22:37:41.771Z,4.37
2022-10-03T22:40:31.421Z,5.13
2022-10-03T22:43:19.832Z,4.60
2022-10-03T22:46:08.310Z,4.63
2022-10-03T22:49:00.131Z,4.87
2022-10-03T22:51:49.132Z,4.50
2022-10-03T22:54:39.809Z,5.27
2022-10-03T22:57:31.761Z,5.03
2022-10-03T23:00:24.821Z,5.23
2022-10-03T23:03:15.110Z,4.87
2022-10-03T23:06:24.549Z,5.50
2022-10-03T23:09:16.155Z,5.80
2022-10-03T23:12:04.828Z,5.10
2022-10-03T23:14:54.770Z,5.17
2022-10-03T23:18:11.915Z,5.30
2022-10-03T23:21:07.364Z,5.23
2022-10-03T23:24:02.891Z,5.20
2022-10-03T23:27:17.421Z,5.50
2022-10-03T23:30:55.109Z,4.80
2022-10-03T23:33:53.372Z,5.53
2022-10-03T23:36:59.931Z,4.97
2022-10-03T23:40:39.035Z,4.93
2022-10-03T23:43:31.069Z,5.10
2022-10-03T23:46:21.499Z,4.90
2022-10-03T23:49:11.260Z,4.80
2022-10-03T23:51:59.589Z,4.90
2022-10-03T23:54:49.024Z,5.27
2022-10-03T23:57:40.197Z,5.60
